sensor_id;sensor_type;location;lat;lon;timestamp;pressure;altitude;pressure_sealevel;temperature;humidity
72896;BME280;61036;53.224;6.554;2023-02-26T00:00:05;101952.25;;;3.30;93.93
72896;BME280;61036;53.224;6.554;2023-02-26T00:02:34;101964.47;;;3.38;92.83
72896;BME280;61036;53.224;6.554;2023-02-26T00:05:02;101963.19;;;3.53;93.82
72896;BME280;61036;53.224;6.554;2023-02-26T00:07:27;101965.00;;;3.51;91.43
72896;BME280;61036;53.224;6.554;2023-02-26T00:09:54;101975.06;;;3.41;94.95
72896;BME280;61036;53.224;6.554;2023-02-26T00:12:20;101979.53;;;3.39;93.88
72896;BME280;61036;53.224;6.554;2023-02-26T00:14:46;101973.41;;;3.36;97.80
72896;BME280;61036;53.224;6.554;2023-02-26T00:17:32;101977.03;;;3.33;100.00
72896;BME280;61036;53.224;6.554;2023-02-26T00:20:02;101980.00;;;3.23;100.00
72896;BME280;61036;53.224;6.554;2023-02-26T00:22:28;101986.44;;;3.14;100.00
72896;BME280;61036;53.224;6.554;2023-02-26T00:24:54;101987.00;;;2.92;100.00
72896;BME280;61036;53.224;6.554;2023-02-26T00:27:19;101983.94;;;2.72;98.64
72896;BME280;61036;53.224;6.554;2023-02-26T00:29:48;101970.00;;;2.96;93.63
72896;BME280;61036;53.224;6.554;2023-02-26T00:32:14;101988.88;;;2.89;93.12
72896;BME280;61036;53.224;6.554;2023-02-26T00:34:46;101985.44;;;2.84;89.14
72896;BME280;61036;53.224;6.554;2023-02-26T00:42:39;101980.91;;;2.86;85.96
72896;BME280;61036;53.224;6.554;2023-02-26T00:45:05;101990.53;;;2.91;87.07
72896;BME280;61036;53.224;6.554;2023-02-26T00:48:05;101994.78;;;3.00;88.79
72896;BME280;61036;53.224;6.554;2023-02-26T00:50:36;101997.91;;;2.82;92.88
72896;BME280;61036;53.224;6.554;2023-02-26T00:53:23;102004.72;;;2.93;92.01
72896;BME280;61036;53.224;6.554;2023-02-26T00:55:51;102010.25;;;2.47;97.52
72896;BME280;61036;53.224;6.554;2023-02-26T00:58:16;102014.38;;;2.60;97.23
72896;BME280;61036;53.224;6.554;2023-02-26T01:00:42;102013.75;;;2.49;99.09
72896;BME280;61036;53.224;6.554;2023-02-26T01:03:08;102014.75;;;2.45;98.71
72896;BME280;61036;53.224;6.554;2023-02-26T01:05:35;102012.09;;;2.43;97.69
72896;BME280;61036;53.224;6.554;2023-02-26T01:10:46;102025.59;;;2.36;100.00
72896;BME280;61036;53.224;6.554;2023-02-26T01:13:12;102025.81;;;2.25;100.00
72896;BME280;61036;53.224;6.554;2023-02-26T01:15:38;102031.41;;;2.13;100.00
72896;BME280;61036;53.224;6.554;2023-02-26T01:18:24;102040.38;;;2.07;100.00
72896;BME280;61036;53.224;6.554;2023-02-26T01:21:14;102047.53;;;2.03;100.00
72896;BME280;61036;53.224;6.554;2023-02-26T01:23:44;102056.44;;;2.02;100.00
72896;BME280;61036;53.224;6.554;2023-02-26T01:26:18;102048.28;;;2.12;100.00
72896;BME280;61036;53.224;6.554;2023-02-26T01:28:46;102051.13;;;2.01;100.00
72896;BME280;61036;53.224;6.554;2023-02-26T01:33:56;102054.72;;;2.00;100.00
72896;BME280;61036;53.224;6.554;2023-02-26T01:36:31;102061.75;;;2.02;100.00
72896;BME280;61036;53.224;6.554;2023-02-26T01:41:46;102056.44;;;2.02;100.00
72896;BME280;61036;53.224;6.554;2023-02-26T01:44:26;102064.63;;;1.92;100.00
72896;BME280;61036;53.224;6.554;2023-02-26T01:49:29;102066.78;;;1.71;100.00
72896;BME280;61036;53.224;6.554;2023-02-26T01:52:00;102067.69;;;1.72;100.00
72896;BME280;61036;53.224;6.554;2023-02-26T01:54:32;102068.38;;;1.81;100.00
72896;BME280;61036;53.224;6.554;2023-02-26T01:57:02;102068.56;;;1.72;100.00
72896;BME280;61036;53.224;6.554;2023-02-26T01:59:31;102070.47;;;1.64;100.00
72896;BME280;61036;53.224;6.554;2023-02-26T02:01:59;102078.06;;;1.34;100.00
72896;BME280;61036;53.224;6.554;2023-02-26T02:04:26;102081.16;;;1.08;100.00
72896;BME280;61036;53.224;6.554;2023-02-26T02:06:53;102078.31;;;1.19;100.00
72896;BME280;61036;53.224;6.554;2023-02-26T02:09:19;102086.19;;;1.27;100.00
72896;BME280;61036;53.224;6.554;2023-02-26T02:34:01;102121.59;;;1.26;100.00
72896;BME280;61036;53.224;6.554;2023-02-26T02:36:46;102123.50;;;1.19;100.00
72896;BME280;61036;53.224;6.554;2023-02-26T02:41:47;102128.19;;;1.02;100.00
72896;BME280;61036;53.224;6.554;2023-02-26T02:44:17;102124.91;;;0.84;100.00
72896;BME280;61036;53.224;6.554;2023-02-26T02:46:46;102126.66;;;0.84;100.00
72896;BME280;61036;53.224;6.554;2023-02-26T02:49:20;102131.94;;;0.87;100.00
72896;BME280;61036;53.224;6.554;2023-02-26T02:51:55;102143.38;;;0.94;100.00
72896;BME280;61036;53.224;6.554;2023-02-26T02:54:39;102146.13;;;0.86;100.00
72896;BME280;61036;53.224;6.554;2023-02-26T02:57:13;102139.91;;;0.87;100.00
72896;BME280;61036;53.224;6.554;2023-02-26T02:59:43;102139.63;;;1.08;100.00
72896;BME280;61036;53.224;6.554;2023-02-26T03:02:35;102137.56;;;1.26;100.00
72896;BME280;61036;53.224;6.554;2023-02-26T03:05:05;102139.44;;;1.19;100.00
72896;BME280;61036;53.224;6.554;2023-02-26T03:07:33;102147.25;;;1.30;100.00
72896;BME280;61036;53.224;6.554;2023-02-26T03:10:00;102149.28;;;1.11;100.00
72896;BME280;61036;53.224;6.554;2023-02-26T03:12:30;102155.00;;;0.83;100.00
72896;BME280;61036;53.224;6.554;2023-02-26T03:14:57;102161.47;;;0.62;100.00
72896;BME280;61036;53.224;6.554;2023-02-26T03:17:37;102155.94;;;0.78;100.00
72896;BME280;61036;53.224;6.554;2023-02-26T03:22:52;102166.84;;;0.56;100.00
72896;BME280;61036;53.224;6.554;2023-02-26T03:25:29;102161.25;;;0.78;100.00
72896;BME280;61036;53.224;6.554;2023-02-26T03:28:13;102173.69;;;0.76;100.00
72896;BME280;61036;53.224;6.554;2023-02-26T03:36:42;102191.34;;;0.80;100.00
72896;BME280;61036;53.224;6.554;2023-02-26T03:39:40;102185.94;;;0.87;100.00
72896;BME280;61036;53.224;6.554;2023-02-26T03:42:12;102193.13;;;0.79;100.00
72896;BME280;61036;53.224;6.554;2023-02-26T03:44:55;102192.91;;;0.95;100.00
72896;BME280;61036;53.224;6.554;2023-02-26T03:47:22;102204.28;;;1.06;100.00
72896;BME280;61036;53.224;6.554;2023-02-26T03:50:16;102200.47;;;1.25;100.00
72896;BME280;61036;53.224;6.554;2023-02-26T03:53:11;102206.72;;;1.21;100.00
72896;BME280;61036;53.224;6.554;2023-02-26T03:59:22;102213.66;;;1.31;100.00
72896;BME280;61036;53.224;6.554;2023-02-26T04:02:04;102217.84;;;1.48;100.00
72896;BME280;61036;53.224;6.554;2023-02-26T04:04:50;102213.13;;;1.67;100.00
72896;BME280;61036;53.224;6.554;2023-02-26T04:07:17;102221.34;;;1.50;100.00
72896;BME280;61036;53.224;6.554;2023-02-26T04:09:45;102225.69;;;1.55;100.00
72896;BME280;61036;53.224;6.554;2023-02-26T04:12:12;102233.69;;;1.55;100.00
72896;BME280;61036;53.224;6.554;2023-02-26T04:14:42;102235.56;;;1.49;100.00
72896;BME280;61036;53.224;6.554;2023-02-26T04:17:08;102232.84;;;1.52;100.00
72896;BME280;61036;53.224;6.554;2023-02-26T04:19:34;102240.88;;;1.47;100.00
72896;BME280;61036;53.224;6.554;2023-02-26T04:21:59;102250.75;;;1.39;100.00
72896;BME280;61036;53.224;6.554;2023-02-26T04:24:27;102255.16;;;1.42;100.00
72896;BME280;61036;53.224;6.554;2023-02-26T04:26:56;102256.03;;;1.41;100.00
72896;BME280;61036;53.224;6.554;2023-02-26T04:29:22;102257.81;;;1.42;100.00
72896;BME280;61036;53.224;6.554;2023-02-26T04:31:48;102261.44;;;1.34;100.00
72896;BME280;61036;53.224;6.554;2023-02-26T04:34:13;102256.25;;;1.25;100.00
72896;BME280;61036;53.224;6.554;2023-02-26T04:36:39;102262.53;;;1.21;100.00
72896;BME280;61036;53.224;6.554;2023-02-26T04:39:04;102264.28;;;1.24;100.00
72896;BME280;61036;53.224;6.554;2023-02-26T04:41:30;102278.38;;;1.26;100.00
72896;BME280;61036;53.224;6.554;2023-02-26T04:43:55;102281.09;;;1.24;100.00
72896;BME280;61036;53.224;6.554;2023-02-26T04:46:27;102277.56;;;1.24;100.00
72896;BME280;61036;53.224;6.554;2023-02-26T04:48:55;102286.47;;;1.18;100.00
72896;BME280;61036;53.224;6.554;2023-02-26T04:51:21;102285.88;;;0.95;100.00
72896;BME280;61036;53.224;6.554;2023-02-26T04:53:49;102287.81;;;0.80;100.00
72896;BME280;61036;53.224;6.554;2023-02-26T04:56:14;102288.81;;;0.68;100.00
72896;BME280;61036;53.224;6.554;2023-02-26T04:58:40;102286.91;;;0.83;100.00
72896;BME280;61036;53.224;6.554;2023-02-26T05:01:12;102286.94;;;0.80;100.00
72896;BME280;61036;53.224;6.554;2023-02-26T05:03:38;102295.09;;;0.60;100.00
72896;BME280;61036;53.224;6.554;2023-02-26T05:06:04;102297.84;;;0.51;100.00
72896;BME280;61036;53.224;6.554;2023-02-26T05:08:30;102310.09;;;0.67;100.00
72896;BME280;61036;53.224;6.554;2023-02-26T05:10:56;102309.13;;;0.76;100.00
72896;BME280;61036;53.224;6.554;2023-02-26T05:13:21;102310.91;;;0.74;100.00
72896;BME280;61036;53.224;6.554;2023-02-26T05:15:47;102316.22;;;0.74;100.00
72896;BME280;61036;53.224;6.554;2023-02-26T05:18:12;102322.41;;;0.71;100.00
72896;BME280;61036;53.224;6.554;2023-02-26T05:20:38;102329.47;;;0.74;100.00
72896;BME280;61036;53.224;6.554;2023-02-26T05:23:06;102329.50;;;0.71;100.00
72896;BME280;61036;53.224;6.554;2023-02-26T05:25:31;102331.28;;;0.70;100.00
72896;BME280;61036;53.224;6.554;2023-02-26T05:27:57;102333.78;;;0.85;100.00
72896;BME280;61036;53.224;6.554;2023-02-26T05:30:22;102329.41;;;0.78;100.00
72896;BME280;61036;53.224;6.554;2023-02-26T05:32:48;102340.75;;;0.96;100.00
72896;BME280;61036;53.224;6.554;2023-02-26T05:35:14;102346.88;;;1.04;100.00
72896;BME280;61036;53.224;6.554;2023-02-26T05:37:42;102345.06;;;1.04;100.00
72896;BME280;61036;53.224;6.554;2023-02-26T05:40:08;102338.78;;;1.13;100.00
72896;BME280;61036;53.224;6.554;2023-02-26T05:42:38;102348.53;;;1.11;100.00
72896;BME280;61036;53.224;6.554;2023-02-26T05:45:04;102347.63;;;1.13;100.00
72896;BME280;61036;53.224;6.554;2023-02-26T05:47:34;102352.06;;;1.13;100.00
72896;BME280;61036;53.224;6.554;2023-02-26T05:49:59;102353.88;;;1.09;100.00
72896;BME280;61036;53.224;6.554;2023-02-26T05:52:25;102359.19;;;1.09;100.00
72896;BME280;61036;53.224;6.554;2023-02-26T05:54:51;102363.59;;;1.10;100.00
72896;BME280;61036;53.224;6.554;2023-02-26T05:57:16;102353.88;;;1.08;100.00
72896;BME280;61036;53.224;6.554;2023-02-26T05:59:42;102362.75;;;1.08;100.00
72896;BME280;61036;53.224;6.554;2023-02-26T06:02:08;102364.50;;;1.09;100.00
72896;BME280;61036;53.224;6.554;2023-02-26T06:04:33;102362.81;;;1.05;100.00
72896;BME280;61036;53.224;6.554;2023-02-26T06:06:59;102371.69;;;1.01;100.00
72896;BME280;61036;53.224;6.554;2023-02-26T06:09:25;102388.50;;;1.03;100.00
72896;BME280;61036;53.224;6.554;2023-02-26T06:11:50;102391.16;;;1.03;100.00
72896;BME280;61036;53.224;6.554;2023-02-26T06:14:16;102397.44;;;0.93;100.00
72896;BME280;61036;53.224;6.554;2023-02-26T06:16:42;102400.03;;;1.01;100.00
72896;BME280;61036;53.224;6.554;2023-02-26T06:19:07;102401.13;;;0.78;100.00
72896;BME280;61036;53.224;6.554;2023-02-26T06:21:33;102408.09;;;0.91;100.00
72896;BME280;61036;53.224;6.554;2023-02-26T06:23:58;102403.69;;;0.89;100.00
72896;BME280;61036;53.224;6.554;2023-02-26T06:26:24;102412.53;;;0.89;100.00
72896;BME280;61036;53.224;6.554;2023-02-26T06:28:49;102417.81;;;0.93;100.00
72896;BME280;61036;53.224;6.554;2023-02-26T06:31:15;102415.25;;;0.83;100.00
72896;BME280;61036;53.224;6.554;2023-02-26T06:33:40;102417.00;;;0.86;100.00
72896;BME280;61036;53.224;6.554;2023-02-26T06:36:06;102417.00;;;0.83;100.00
72896;BME280;61036;53.224;6.554;2023-02-26T06:38:32;102413.41;;;0.90;100.00
72896;BME280;61036;53.224;6.554;2023-02-26T06:40:58;102432.88;;;0.94;100.00
72896;BME280;61036;53.224;6.554;2023-02-26T06:43:24;102434.53;;;1.05;100.00
72896;BME280;61036;53.224;6.554;2023-02-26T06:45:50;102435.47;;;0.98;100.00
72896;BME280;61036;53.224;6.554;2023-02-26T06:48:15;102444.25;;;1.05;100.00
72896;BME280;61036;53.224;6.554;2023-02-26T06:50:41;102444.16;;;1.16;100.00
72896;BME280;61036;53.224;6.554;2023-02-26T06:53:06;102437.91;;;1.20;100.00
72896;BME280;61036;53.224;6.554;2023-02-26T06:55:32;102436.97;;;1.25;100.00
72896;BME280;61036;53.224;6.554;2023-02-26T06:57:58;102446.75;;;1.22;100.00
72896;BME280;61036;53.224;6.554;2023-02-26T07:00:24;102449.31;;;1.32;100.00
72896;BME280;61036;53.224;6.554;2023-02-26T07:02:50;102456.31;;;1.38;100.00
72896;BME280;61036;53.224;6.554;2023-02-26T07:05:16;102459.56;;;1.65;100.00
72896;BME280;61036;53.224;6.554;2023-02-26T07:07:42;102456.91;;;1.66;100.00
72896;BME280;61036;53.224;6.554;2023-02-26T07:10:10;102462.91;;;1.80;100.00
72896;BME280;61036;53.224;6.554;2023-02-26T07:12:36;102466.75;;;1.53;100.00
72896;BME280;61036;53.224;6.554;2023-02-26T07:15:06;102471.94;;;1.67;100.00
72896;BME280;61036;53.224;6.554;2023-02-26T07:17:34;102466.75;;;1.55;100.00
72896;BME280;61036;53.224;6.554;2023-02-26T07:19:59;102477.19;;;1.75;100.00
72896;BME280;61036;53.224;6.554;2023-02-26T07:22:30;102470.47;;;2.14;100.00
72896;BME280;61036;53.224;6.554;2023-02-26T07:24:57;102471.25;;;2.21;100.00
72896;BME280;61036;53.224;6.554;2023-02-26T07:27:25;102476.34;;;2.35;100.00
72896;BME280;61036;53.224;6.554;2023-02-26T07:29:50;102474.00;;;2.15;100.00
72896;BME280;61036;53.224;6.554;2023-02-26T07:32:16;102472.28;;;2.09;100.00
72896;BME280;61036;53.224;6.554;2023-02-26T07:34:41;102476.31;;;2.41;100.00
72896;BME280;61036;53.224;6.554;2023-02-26T07:37:07;102474.59;;;2.34;100.00
72896;BME280;61036;53.224;6.554;2023-02-26T07:39:32;102477.63;;;2.08;100.00
72896;BME280;61036;53.224;6.554;2023-02-26T07:41:58;102473.00;;;2.22;100.00
72896;BME280;61036;53.224;6.554;2023-02-26T07:44:26;102478.44;;;2.14;100.00
72896;BME280;61036;53.224;6.554;2023-02-26T07:46:51;102486.81;;;2.50;100.00
72896;BME280;61036;53.224;6.554;2023-02-26T07:49:17;102485.34;;;2.27;100.00
72896;BME280;61036;53.224;6.554;2023-02-26T07:51:42;102504.72;;;2.37;100.00
72896;BME280;61036;53.224;6.554;2023-02-26T07:54:13;102499.53;;;2.28;100.00
72896;BME280;61036;53.224;6.554;2023-02-26T07:56:39;102500.03;;;2.55;100.00
72896;BME280;61036;53.224;6.554;2023-02-26T07:59:07;102499.84;;;3.23;100.00
72896;BME280;61036;53.224;6.554;2023-02-26T08:01:34;102494.53;;;5.23;100.00
72896;BME280;61036;53.224;6.554;2023-02-26T08:04:00;102500.00;;;5.18;100.00
72896;BME280;61036;53.224;6.554;2023-02-26T08:06:27;102496.19;;;7.08;100.00
72896;BME280;61036;53.224;6.554;2023-02-26T08:08:52;102486.72;;;11.90;78.78
72896;BME280;61036;53.224;6.554;2023-02-26T08:11:18;102489.38;;;13.48;55.30
72896;BME280;61036;53.224;6.554;2023-02-26T08:13:43;102488.09;;;15.48;43.75
72896;BME280;61036;53.224;6.554;2023-02-26T08:16:09;102491.78;;;18.03;35.52
72896;BME280;61036;53.224;6.554;2023-02-26T08:18:34;102504.50;;;18.93;31.88
72896;BME280;61036;53.224;6.554;2023-02-26T08:21:00;102503.94;;;19.31;30.55
72896;BME280;61036;53.224;6.554;2023-02-26T08:23:26;102500.72;;;19.05;30.32
72896;BME280;61036;53.224;6.554;2023-02-26T08:26:02;102499.38;;;16.08;34.25
72896;BME280;61036;53.224;6.554;2023-02-26T08:28:30;102509.88;;;15.61;36.10
72896;BME280;61036;53.224;6.554;2023-02-26T08:30:56;102505.22;;;17.25;33.59
72896;BME280;61036;53.224;6.554;2023-02-26T08:33:21;102511.50;;;14.57;37.10
72896;BME280;61036;53.224;6.554;2023-02-26T08:35:47;102515.78;;;13.59;40.79
72896;BME280;61036;53.224;6.554;2023-02-26T08:38:13;102519.09;;;15.46;37.73
72896;BME280;61036;53.224;6.554;2023-02-26T08:40:42;102527.06;;;16.51;35.21
72896;BME280;61036;53.224;6.554;2023-02-26T08:43:07;102530.31;;;17.41;34.24
72896;BME280;61036;53.224;6.554;2023-02-26T08:45:36;102528.31;;;16.34;35.81
72896;BME280;61036;53.224;6.554;2023-02-26T08:48:03;102536.59;;;14.03;39.65
72896;BME280;61036;53.224;6.554;2023-02-26T08:50:28;102542.34;;;15.10;38.96
72896;BME280;61036;53.224;6.554;2023-02-26T08:52:54;102547.97;;;13.19;40.93
72896;BME280;61036;53.224;6.554;2023-02-26T08:55:21;102550.66;;;14.94;42.45
72896;BME280;61036;53.224;6.554;2023-02-26T08:57:46;102562.66;;;15.59;39.22
72896;BME280;61036;53.224;6.554;2023-02-26T09:00:13;102562.84;;;9.96;55.65
72896;BME280;61036;53.224;6.554;2023-02-26T09:02:43;102557.53;;;12.79;45.97
72896;BME280;61036;53.224;6.554;2023-02-26T09:05:08;102560.38;;;12.44;47.55
72896;BME280;61036;53.224;6.554;2023-02-26T09:07:34;102566.13;;;12.38;47.12
72896;BME280;61036;53.224;6.554;2023-02-26T09:10:00;102563.13;;;12.76;49.08
72896;BME280;61036;53.224;6.554;2023-02-26T09:12:25;102573.75;;;10.72;53.99
72896;BME280;61036;53.224;6.554;2023-02-26T09:14:51;102578.88;;;9.16;74.63
72896;BME280;61036;53.224;6.554;2023-02-26T09:17:16;102589.13;;;6.81;88.53
72896;BME280;61036;53.224;6.554;2023-02-26T09:19:42;102576.75;;;10.66;70.96
72896;BME280;61036;53.224;6.554;2023-02-26T09:22:07;102572.44;;;14.80;49.45
72896;BME280;61036;53.224;6.554;2023-02-26T09:24:33;102565.00;;;18.43;34.98
72896;BME280;61036;53.224;6.554;2023-02-26T09:26:59;102578.66;;;18.10;34.31
72896;BME280;61036;53.224;6.554;2023-02-26T09:29:25;102584.69;;;14.44;40.82
72896;BME280;61036;53.224;6.554;2023-02-26T09:31:51;102586.78;;;13.04;43.00
72896;BME280;61036;53.224;6.554;2023-02-26T09:34:16;102590.22;;;10.85;53.67
72896;BME280;61036;53.224;6.554;2023-02-26T09:36:42;102599.78;;;8.64;74.18
72896;BME280;61036;53.224;6.554;2023-02-26T09:39:08;102600.91;;;10.09;61.72
72896;BME280;61036;53.224;6.554;2023-02-26T09:41:47;102609.53;;;11.13;56.94
72896;BME280;61036;53.224;6.554;2023-02-26T09:49:32;102609.16;;;10.25;66.70
72896;BME280;61036;53.224;6.554;2023-02-26T09:54:52;102617.63;;;10.17;64.88
72896;BME280;61036;53.224;6.554;2023-02-26T09:59:54;102614.94;;;10.94;59.55
72896;BME280;61036;53.224;6.554;2023-02-26T10:02:33;102619.91;;;9.85;55.37
72896;BME280;61036;53.224;6.554;2023-02-26T10:07:47;102628.81;;;20.18;29.78
72896;BME280;61036;53.224;6.554;2023-02-26T10:12:49;102620.13;;;18.26;30.63
72896;BME280;61036;53.224;6.554;2023-02-26T10:15:20;102637.06;;;15.16;34.07
72896;BME280;61036;53.224;6.554;2023-02-26T10:18:13;102635.47;;;14.99;35.06
72896;BME280;61036;53.224;6.554;2023-02-26T10:20:53;102627.84;;;16.26;30.40
72896;BME280;61036;53.224;6.554;2023-02-26T10:23:42;102643.47;;;11.00;45.33
72896;BME280;61036;53.224;6.554;2023-02-26T10:26:18;102653.09;;;8.53;57.07
72896;BME280;61036;53.224;6.554;2023-02-26T10:36:28;102668.97;;;6.40;80.00
72896;BME280;61036;53.224;6.554;2023-02-26T10:39:00;102677.06;;;6.99;83.30
72896;BME280;61036;53.224;6.554;2023-02-26T10:41:30;102669.25;;;6.62;80.27
72896;BME280;61036;53.224;6.554;2023-02-26T10:44:17;102673.63;;;7.24;80.10
72896;BME280;61036;53.224;6.554;2023-02-26T10:46:53;102696.69;;;6.70;85.79
72896;BME280;61036;53.224;6.554;2023-02-26T10:52:13;102683.13;;;7.62;80.93
72896;BME280;61036;53.224;6.554;2023-02-26T10:57:26;102669.81;;;8.61;79.16
72896;BME280;61036;53.224;6.554;2023-02-26T10:59:58;102675.56;;;7.47;83.03
72896;BME280;61036;53.224;6.554;2023-02-26T11:02:38;102688.41;;;6.48;84.84
72896;BME280;61036;53.224;6.554;2023-02-26T11:05:06;102684.78;;;6.49;89.11
72896;BME280;61036;53.224;6.554;2023-02-26T11:07:34;102694.81;;;6.43;85.88
72896;BME280;61036;53.224;6.554;2023-02-26T11:10:01;102693.28;;;6.95;88.59
72896;BME280;61036;53.224;6.554;2023-02-26T11:12:27;102686.75;;;6.74;89.27
72896;BME280;61036;53.224;6.554;2023-02-26T11:14:53;102691.63;;;7.20;86.76
72896;BME280;61036;53.224;6.554;2023-02-26T11:17:23;102692.75;;;7.13;85.00
72896;BME280;61036;53.224;6.554;2023-02-26T11:19:56;102697.66;;;7.27;84.07
72896;BME280;61036;53.224;6.554;2023-02-26T11:22:24;102702.41;;;6.58;90.88
72896;BME280;61036;53.224;6.554;2023-02-26T11:24:51;102697.44;;;6.75;91.56
72896;BME280;61036;53.224;6.554;2023-02-26T11:27:37;102709.81;;;7.10;89.48
72896;BME280;61036;53.224;6.554;2023-02-26T11:30:14;102702.13;;;7.56;84.25
72896;BME280;61036;53.224;6.554;2023-02-26T11:32:43;102707.31;;;7.61;82.21
72896;BME280;61036;53.224;6.554;2023-02-26T11:35:14;102699.44;;;7.83;83.74
72896;BME280;61036;53.224;6.554;2023-02-26T11:37:44;102701.22;;;6.99;85.04
72896;BME280;61036;53.224;6.554;2023-02-26T11:42:48;102706.03;;;7.72;83.80
72896;BME280;61036;53.224;6.554;2023-02-26T11:45:17;102702.06;;;7.57;81.81
72896;BME280;61036;53.224;6.554;2023-02-26T11:47:47;102702.59;;;7.69;84.88
72896;BME280;61036;53.224;6.554;2023-02-26T11:50:18;102708.41;;;7.82;85.29
72896;BME280;61036;53.224;6.554;2023-02-26T11:52:54;102705.94;;;8.02;82.13
72896;BME280;61036;53.224;6.554;2023-02-26T11:55:27;102711.53;;;7.96;79.80
72896;BME280;61036;53.224;6.554;2023-02-26T11:57:54;102710.00;;;7.61;84.19
72896;BME280;61036;53.224;6.554;2023-02-26T12:00:24;102712.59;;;6.45;85.55
72896;BME280;61036;53.224;6.554;2023-02-26T12:02:55;102709.91;;;7.64;92.78
72896;BME280;61036;53.224;6.554;2023-02-26T12:05:25;102700.69;;;8.24;83.98
72896;BME280;61036;53.224;6.554;2023-02-26T12:07:51;102693.47;;;8.26;82.62
72896;BME280;61036;53.224;6.554;2023-02-26T12:10:21;102696.56;;;7.34;85.82
72896;BME280;61036;53.224;6.554;2023-02-26T12:12:57;102706.22;;;7.94;82.39
72896;BME280;61036;53.224;6.554;2023-02-26T12:15:57;102698.41;;;8.13;79.19
72896;BME280;61036;53.224;6.554;2023-02-26T12:18:36;102711.09;;;8.08;80.89
72896;BME280;61036;53.224;6.554;2023-02-26T12:26:54;102700.41;;;8.07;82.44
72896;BME280;61036;53.224;6.554;2023-02-26T12:32:09;102700.22;;;7.31;91.90
72896;BME280;61036;53.224;6.554;2023-02-26T12:35:05;102699.94;;;7.41;94.48
72896;BME280;61036;53.224;6.554;2023-02-26T12:37:50;102698.81;;;7.74;91.02
72896;BME280;61036;53.224;6.554;2023-02-26T12:54:34;102707.41;;;7.57;90.20
72896;BME280;61036;53.224;6.554;2023-02-26T12:57:38;102710.03;;;7.03;91.61
72896;BME280;61036;53.224;6.554;2023-02-26T13:03:21;102713.31;;;7.13;97.32
72896;BME280;61036;53.224;6.554;2023-02-26T13:08:31;102703.78;;;7.32;94.94
72896;BME280;61036;53.224;6.554;2023-02-26T13:13:53;102714.59;;;7.29;93.15
72896;BME280;61036;53.224;6.554;2023-02-26T13:16:36;102715.84;;;7.47;92.20
72896;BME280;61036;53.224;6.554;2023-02-26T13:21:59;102720.75;;;7.32;90.79
72896;BME280;61036;53.224;6.554;2023-02-26T13:24:34;102714.91;;;6.88;96.16
72896;BME280;61036;53.224;6.554;2023-02-26T13:27:04;102707.97;;;7.41;96.57
72896;BME280;61036;53.224;6.554;2023-02-26T13:29:43;102711.75;;;7.05;94.32
72896;BME280;61036;53.224;6.554;2023-02-26T13:32:15;102725.31;;;6.70;94.06
72896;BME280;61036;53.224;6.554;2023-02-26T13:35:02;102717.44;;;6.63;94.23
72896;BME280;61036;53.224;6.554;2023-02-26T13:37:57;102718.91;;;7.05;91.77
72896;BME280;61036;53.224;6.554;2023-02-26T13:40:33;102717.66;;;7.46;91.12
72896;BME280;61036;53.224;6.554;2023-02-26T13:43:15;102721.59;;;7.35;91.11
72896;BME280;61036;53.224;6.554;2023-02-26T13:53:52;102720.03;;;7.55;83.44
72896;BME280;61036;53.224;6.554;2023-02-26T13:59:04;102720.28;;;7.18;88.83
72896;BME280;61036;53.224;6.554;2023-02-26T14:06:52;102713.22;;;7.72;86.56
72896;BME280;61036;53.224;6.554;2023-02-26T14:12:01;102728.31;;;7.20;88.40
72896;BME280;61036;53.224;6.554;2023-02-26T14:14:40;102720.16;;;7.23;90.39
72896;BME280;61036;53.224;6.554;2023-02-26T14:22:44;102717.50;;;6.62;94.09
72896;BME280;61036;53.224;6.554;2023-02-26T14:25:29;102720.16;;;6.93;94.05
72896;BME280;61036;53.224;6.554;2023-02-26T14:31:03;102720.72;;;7.89;87.26
72896;BME280;61036;53.224;6.554;2023-02-26T14:33:31;102723.53;;;7.29;91.64
72896;BME280;61036;53.224;6.554;2023-02-26T14:36:08;102719.31;;;7.21;90.00
72896;BME280;61036;53.224;6.554;2023-02-26T14:38:41;102720.72;;;7.04;90.68
72896;BME280;61036;53.224;6.554;2023-02-26T14:41:28;102724.31;;;7.33;90.97
72896;BME280;61036;53.224;6.554;2023-02-26T14:44:00;102725.63;;;7.20;95.16
72896;BME280;61036;53.224;6.554;2023-02-26T14:46:29;102722.44;;;6.77;95.34
72896;BME280;61036;53.224;6.554;2023-02-26T14:48:55;102727.31;;;6.61;91.97
72896;BME280;61036;53.224;6.554;2023-02-26T15:02:34;102730.16;;;7.18;86.48
72896;BME280;61036;53.224;6.554;2023-02-26T15:10:06;102724.22;;;7.06;93.50
72896;BME280;61036;53.224;6.554;2023-02-26T15:15:44;102730.84;;;7.24;87.65
72896;BME280;61036;53.224;6.554;2023-02-26T15:18:49;102728.63;;;7.09;89.09
72896;BME280;61036;53.224;6.554;2023-02-26T15:24:09;102730.56;;;6.74;94.32
72896;BME280;61036;53.224;6.554;2023-02-26T15:26:44;102726.09;;;6.73;95.04
72896;BME280;61036;53.224;6.554;2023-02-26T15:29:13;102725.13;;;6.76;94.69
72896;BME280;61036;53.224;6.554;2023-02-26T15:31:52;102731.78;;;6.62;95.79
72896;BME280;61036;53.224;6.554;2023-02-26T15:34:18;102728.31;;;6.90;94.94
72896;BME280;61036;53.224;6.554;2023-02-26T15:36:47;102731.09;;;6.85;93.47
72896;BME280;61036;53.224;6.554;2023-02-26T15:39:15;102729.00;;;6.66;93.14
72896;BME280;61036;53.224;6.554;2023-02-26T15:41:42;102733.38;;;6.37;92.67
72896;BME280;61036;53.224;6.554;2023-02-26T15:44:14;102737.06;;;6.33;94.43
72896;BME280;61036;53.224;6.554;2023-02-26T15:46:45;102737.06;;;6.66;93.73
72896;BME280;61036;53.224;6.554;2023-02-26T15:49:33;102728.75;;;6.75;94.59
72896;BME280;61036;53.224;6.554;2023-02-26T15:52:01;102730.06;;;6.60;97.13
72896;BME280;61036;53.224;6.554;2023-02-26T15:54:38;102731.50;;;7.03;96.30
72896;BME280;61036;53.224;6.554;2023-02-26T15:57:06;102728.81;;;7.03;96.64